Time;durP1;ratioP1;P1;durP2;ratioP2;P2;SDS_P1;SDS_P2;PMS_P1;PMS_P2;Temp;Humidity;BMP_temperature;BMP_pressure;BME280_temperature;BME280_humidity;BME280_pressure;Samples;Min_cycle;Max_cycle;Signal;HPM_P1;HPM_P2
2023/10/19 00:00:55;;;;;;;63.13;57.35;;;14.10;99.90;;;;;;5068592;28;20044;-65
2023/10/19 00:03:23;;;;;;;66.80;60.50;;;14.40;99.90;;;;;;5069238;28;20457;-64
2023/10/19 00:05:49;;;;;;;62.90;56.78;;;14.80;99.90;;;;;;5067476;28;20090;-65
2023/10/19 00:08:20;;;;;;;67.55;61.17;;;14.70;99.90;;;;;;5068929;28;20091;-69
2023/10/19 00:10:50;;;;;;;61.40;55.63;;;14.90;99.90;;;;;;5067371;28;20045;-66
2023/10/19 00:13:18;;;;;;;66.13;59.60;;;14.10;99.90;;;;;;5068608;28;20037;-67
2023/10/19 00:15:48;;;;;;;69.78;62.83;;;14.10;99.90;;;;;;5068469;28;20076;-66
2023/10/19 00:21:04;;;;;;;73.93;67.18;;;14.70;99.90;;;;;;5068902;28;20071;-65
2023/10/19 00:23:32;;;;;;;65.50;59.30;;;14.80;99.90;;;;;;5083704;28;20051;-65
2023/10/19 00:25:59;;;;;;;77.82;70.55;;;14.80;99.90;;;;;;5069100;28;20452;-64
2023/10/19 00:28:27;;;;;;;74.57;67.60;;;14.40;99.90;;;;;;5062836;28;20128;-65
2023/10/19 00:30:59;;;;;;;70.57;64.03;;;14.90;99.90;;;;;;5068683;28;20094;-64
2023/10/19 00:33:28;;;;;;;70.07;63.45;;;14.40;99.90;;;;;;5069103;28;20044;-64
2023/10/19 00:36:30;;;;;;;76.78;69.68;;;14.20;99.90;;;;;;5067122;28;20051;-64
2023/10/19 00:41:27;;;;;;;76.35;68.80;;;14.20;99.90;;;;;;5068399;28;20037;-64
2023/10/19 00:44:11;;;;;;;75.68;68.40;;;14.10;99.90;;;;;;5063737;28;20072;-64
2023/10/19 00:46:43;;;;;;;82.10;73.93;;;14.40;99.90;;;;;;5068449;28;20037;-64
2023/10/19 00:49:13;;;;;;;75.85;68.60;;;14.90;99.90;;;;;;5068462;28;20119;-64
2023/10/19 00:51:50;;;;;;;76.32;68.90;;;14.60;99.90;;;;;;5068815;28;20045;-64
2023/10/19 00:54:50;;;;;;;83.82;75.28;;;15.00;99.90;;;;;;5068434;28;20051;-64
2023/10/19 00:57:22;;;;;;;81.32;72.65;;;14.20;99.90;;;;;;5068162;28;20076;-65
2023/10/19 00:59:51;;;;;;;69.60;63.03;;;15.10;99.90;;;;;;5068768;28;20110;-65
2023/10/19 01:04:55;;;;;;;74.85;67.47;;;15.20;99.90;;;;;;5070461;28;20040;-64
2023/10/19 01:07:23;;;;;;;72.28;64.88;;;15.20;99.90;;;;;;5067884;28;20036;-64
2023/10/19 01:09:53;;;;;;;75.72;68.15;;;15.20;99.90;;;;;;5068143;28;20043;-65
2023/10/19 01:12:25;;;;;;;78.55;70.70;;;15.50;99.90;;;;;;5067943;28;20044;-65
2023/10/19 01:15:13;;;;;;;65.43;58.92;;;14.20;99.90;;;;;;5067094;28;20418;-64
2023/10/19 01:17:43;;;;;;;91.07;82.03;;;15.10;99.90;;;;;;5067476;28;20444;-65
2023/10/19 01:20:21;;;;;;;68.40;61.45;;;15.30;99.90;;;;;;5067452;28;20048;-65
2023/10/19 01:25:42;;;;;;;77.82;70.40;;;14.70;99.90;;;;;;5083336;28;20090;-65
2023/10/19 01:28:10;;;;;;;100.63;90.68;;;14.20;99.90;;;;;;5065835;28;20067;-65
2023/10/19 01:30:36;;;;;;;82.32;74.10;;;15.20;99.90;;;;;;5066695;28;20513;-65
2023/10/19 01:33:12;;;;;;;83.15;74.93;;;14.30;99.90;;;;;;5067939;28;20458;-65
2023/10/19 01:38:23;;;;;;;85.25;76.53;;;14.10;99.90;;;;;;5067894;28;20052;-65
2023/10/19 01:40:51;;;;;;;55.60;44.15;;;14.30;99.90;;;;;;5051085;28;20044;-65
2023/10/19 01:43:30;;;;;;;86.18;76.90;;;14.40;99.90;;;;;;5066321;28;20772;-65
2023/10/19 01:45:56;;;;;;;96.32;86.43;;;14.20;99.90;;;;;;5067156;28;20071;-65
2023/10/19 01:48:33;;;;;;;94.63;82.43;;;15.10;99.90;;;;;;5067202;28;20044;-65
2023/10/19 01:51:00;;;;;;;90.63;80.75;;;15.20;99.90;;;;;;5051401;28;20548;-65
2023/10/19 01:53:25;;;;;;;94.22;84.43;;;14.70;99.90;;;;;;5067792;28;20478;-65
2023/10/19 01:55:57;;;;;;;100.97;90.20;;;14.30;99.90;;;;;;5067004;28;20089;-65
2023/10/19 01:58:25;;;;;;;100.57;89.97;;;15.50;99.90;;;;;;5066658;28;20544;-65
2023/10/19 02:00:55;;;;;;;75.85;67.68;;;15.70;99.90;;;;;;5067071;28;20040;-66
2023/10/19 02:03:23;;;;;;;85.05;76.03;;;15.20;99.90;;;;;;5081825;28;20490;-67
2023/10/19 02:05:50;;;;;;;95.35;85.30;;;14.00;99.90;;;;;;5067177;28;20043;-66
2023/10/19 02:08:17;;;;;;;92.63;82.55;;;15.10;99.90;;;;;;5067079;28;20386;-66
2023/10/19 02:10:47;;;;;;;81.00;72.43;;;14.40;99.90;;;;;;5066838;28;20051;-66
2023/10/19 02:13:15;;;;;;;88.60;79.63;;;14.90;99.90;;;;;;5068062;28;20452;-66
2023/10/19 02:15:43;;;;;;;93.20;81.63;;;14.90;99.90;;;;;;5071201;28;20052;-65
2023/10/19 02:18:08;;;;;;;97.80;87.63;;;14.20;99.90;;;;;;5071042;28;20050;-65
2023/10/19 02:20:34;;;;;;;84.53;75.93;;;14.20;99.90;;;;;;5071150;28;20060;-64
2023/10/19 02:23:03;;;;;;;92.65;83.28;;;15.60;99.90;;;;;;5070939;28;20053;-66
2023/10/19 02:25:34;;;;;;;82.78;74.38;;;15.60;99.90;;;;;;5070121;28;20051;-64
2023/10/19 02:27:59;;;;;;;92.13;83.35;;;14.60;99.90;;;;;;5070582;28;20080;-64
2023/10/19 02:30:25;;;;;;;79.32;70.65;;;14.60;99.90;;;;;;5071021;28;20082;-64
2023/10/19 02:32:51;;;;;;;80.25;72.25;;;14.50;99.90;;;;;;5070844;28;20048;-65
2023/10/19 02:35:18;;;;;;;81.05;73.15;;;15.70;99.90;;;;;;5070915;28;20032;-65
2023/10/19 02:37:44;;;;;;;77.20;69.45;;;14.90;99.90;;;;;;5070808;28;20056;-65
2023/10/19 02:40:19;;;;;;;74.90;67.85;;;15.80;99.90;;;;;;5070549;28;20503;-65
2023/10/19 02:42:48;;;;;;;79.37;71.87;;;14.40;99.90;;;;;;5070437;28;20457;-65
2023/10/19 02:45:15;;;;;;;80.15;70.85;;;15.50;99.90;;;;;;5070618;28;20201;-65
2023/10/19 02:47:46;;;;;;;96.38;87.15;;;16.20;99.90;;;;;;5070814;28;20094;-65
2023/10/19 02:50:22;;;;;;;69.80;62.92;;;14.50;99.90;;;;;;5070949;28;20504;-64
2023/10/19 02:52:49;;;;;;;76.55;68.55;;;15.90;99.90;;;;;;5069814;28;20040;-65
2023/10/19 02:55:17;;;;;;;73.68;65.93;;;15.40;99.90;;;;;;5070329;28;20048;-64
2023/10/19 02:57:46;;;;;;;70.18;63.08;;;15.10;99.90;;;;;;5070238;28;20547;-64
2023/10/19 03:00:13;;;;;;;77.95;70.43;;;14.80;99.90;;;;;;5070127;28;20052;-64
2023/10/19 03:02:40;;;;;;;74.78;67.25;;;14.70;99.90;;;;;;5070320;28;20044;-65
2023/10/19 03:05:14;;;;;;;69.72;62.97;;;14.70;99.90;;;;;;5070301;28;20117;-64
2023/10/19 03:07:43;;;;;;;80.57;73.00;;;14.60;99.90;;;;;;5070248;28;20048;-65
2023/10/19 03:10:23;;;;;;;70.47;63.78;;;15.20;99.90;;;;;;5070515;28;20094;-65
2023/10/19 03:12:49;;;;;;;74.43;66.82;;;16.00;99.90;;;;;;5069479;28;20079;-65
2023/10/19 03:15:16;;;;;;;70.07;63.20;;;14.70;99.90;;;;;;5070062;28;20459;-65
2023/10/19 03:17:42;;;;;;;69.60;62.67;;;14.70;99.90;;;;;;5070272;28;20117;-65
2023/10/19 03:20:10;;;;;;;75.45;68.10;;;15.30;99.90;;;;;;5070245;28;20060;-65
2023/10/19 03:22:38;;;;;;;72.68;65.57;;;14.80;99.90;;;;;;5069588;28;20041;-65
2023/10/19 03:27:52;;;;;;;66.38;60.47;;;16.10;99.90;;;;;;5067717;28;20090;-65
2023/10/19 03:30:19;;;;;;;67.65;61.08;;;16.40;99.90;;;;;;5069881;28;20052;-65
2023/10/19 03:32:44;;;;;;;62.88;56.70;;;16.40;99.90;;;;;;5068249;28;20084;-65
2023/10/19 03:35:15;;;;;;;61.70;55.20;;;16.50;99.90;;;;;;5069501;28;20079;-65
2023/10/19 03:37:41;;;;;;;64.32;58.17;;;15.20;99.90;;;;;;5069350;28;20032;-65
2023/10/19 03:40:10;;;;;;;61.55;55.67;;;16.40;99.90;;;;;;5056441;28;20080;-65
2023/10/19 03:42:40;;;;;;;65.47;59.08;;;16.30;99.90;;;;;;5068804;28;20044;-66
2023/10/19 03:45:13;;;;;;;69.13;62.25;;;16.50;99.90;;;;;;5068351;28;20121;-66
2023/10/19 03:47:44;;;;;;;60.58;54.83;;;14.60;99.90;;;;;;5069342;28;20132;-66
2023/10/19 03:50:14;;;;;;;62.50;55.85;;;15.50;99.90;;;;;;5069498;28;20534;-66
2023/10/19 03:52:40;;;;;;;63.80;57.75;;;14.60;99.90;;;;;;5069047;28;20115;-66
2023/10/19 03:55:11;;;;;;;59.30;53.60;;;16.30;99.90;;;;;;5069220;28;20108;-66
2023/10/19 03:57:41;;;;;;;70.68;63.92;;;16.20;99.90;;;;;;5069745;28;20041;-66
2023/10/19 04:00:11;;;;;;;60.30;53.83;;;15.10;99.90;;;;;;5069326;28;20040;-66
2023/10/19 04:02:38;;;;;;;65.30;59.28;;;16.40;99.90;;;;;;5064763;28;20041;-66
2023/10/19 04:05:04;;;;;;;64.80;58.58;;;14.60;99.90;;;;;;5064933;28;20301;-66
2023/10/19 04:07:33;;;;;;;60.60;54.08;;;16.70;99.90;;;;;;5068844;28;20059;-65
2023/10/19 04:12:42;;;;;;;64.65;58.05;;;14.70;99.90;;;;;;5069121;28;20094;-66
2023/10/19 04:15:18;;;;;;;61.90;55.58;;;16.10;99.90;;;;;;5070854;28;20462;-66
2023/10/19 04:17:45;;;;;;;58.35;51.92;;;14.60;99.90;;;;;;5071242;28;20489;-67
2023/10/19 04:22:53;;;;;;;59.92;53.75;;;15.80;99.90;;;;;;5068558;28;20139;-67
2023/10/19 04:25:20;;;;;;;55.35;50.22;;;14.70;99.90;;;;;;5066253;28;20071;-66
2023/10/19 04:27:49;;;;;;;60.30;54.72;;;15.00;99.90;;;;;;5067859;28;20045;-66
2023/10/19 04:30:16;;;;;;;52.75;47.22;;;15.20;99.90;;;;;;5067952;28;20032;-65
2023/10/19 04:32:46;;;;;;;55.55;50.55;;;15.90;99.90;;;;;;5067926;28;20491;-65
2023/10/19 04:35:21;;;;;;;52.65;47.80;;;14.80;99.90;;;;;;5066648;28;20072;-65
2023/10/19 04:37:56;;;;;;;49.13;45.03;;;15.20;99.90;;;;;;5067469;28;20059;-65
2023/10/19 04:40:23;;;;;;;51.72;46.47;;;16.50;99.90;;;;;;5070831;28;20055;-65
2023/10/19 04:42:50;;;;;;;51.17;46.28;;;16.50;99.90;;;;;;5069341;28;20511;-64
2023/10/19 04:45:16;;;;;;;52.60;47.65;;;17.00;99.90;;;;;;5068277;28;20040;-64
2023/10/19 04:47:41;;;;;;;55.47;50.20;;;15.70;99.90;;;;;;5075597;28;20443;-64
2023/10/19 04:50:10;;;;;;;52.10;46.92;;;14.70;99.90;;;;;;5067908;28;20056;-64
2023/10/19 04:52:36;;;;;;;52.92;47.95;;;17.10;99.90;;;;;;5059199;28;20040;-64
2023/10/19 04:55:02;;;;;;;50.15;45.40;;;17.10;99.90;;;;;;5065748;28;20041;-64
2023/10/19 04:57:28;;;;;;;53.67;48.38;;;15.30;99.90;;;;;;5061281;28;20102;-63
2023/10/19 04:59:53;;;;;;;53.47;47.97;;;17.10;99.90;;;;;;5063059;28;20071;-65
2023/10/19 05:02:19;;;;;;;54.75;49.72;;;16.80;99.90;;;;;;5065062;28;20033;-64
2023/10/19 05:04:45;;;;;;;52.88;48.00;;;15.90;99.90;;;;;;5064808;28;20056;-63
2023/10/19 05:07:16;;;;;;;45.90;41.40;;;17.20;99.90;;;;;;5066088;28;20036;-63
2023/10/19 05:09:45;;;;;;;46.72;42.28;;;16.20;99.90;;;;;;5078122;28;20044;-63
2023/10/19 05:12:14;;;;;;;51.10;46.20;;;17.00;99.90;;;;;;5057185;28;20056;-63
2023/10/19 05:14:41;;;;;;;49.67;45.10;;;15.30;99.90;;;;;;5057778;28;20048;-64
2023/10/19 05:17:09;;;;;;;47.80;43.33;;;17.20;99.90;;;;;;5066834;28;20036;-63
2023/10/19 05:19:35;;;;;;;50.75;45.75;;;16.70;99.90;;;;;;5064261;28;20053;-63
2023/10/19 05:22:02;;;;;;;49.30;44.45;;;16.10;99.90;;;;;;5063089;28;20056;-64
2023/10/19 05:24:29;;;;;;;53.70;48.55;;;14.80;99.90;;;;;;5067084;28;20110;-64
2023/10/19 05:26:55;;;;;;;49.28;44.28;;;17.30;99.90;;;;;;5069720;28;20040;-64
2023/10/19 05:29:22;;;;;;;57.50;51.60;;;17.20;99.90;;;;;;5065973;28;20090;-63
2023/10/19 05:31:53;;;;;;;51.63;46.65;;;15.80;99.90;;;;;;5067844;28;20062;-63
2023/10/19 05:34:20;;;;;;;50.22;45.60;;;14.90;99.90;;;;;;5067755;28;20051;-64
2023/10/19 05:36:48;;;;;;;49.60;44.65;;;14.90;99.90;;;;;;5066852;28;20486;-64
2023/10/19 05:39:14;;;;;;;49.78;45.08;;;17.40;99.90;;;;;;5065569;28;20044;-63
2023/10/19 05:41:40;;;;;;;49.78;44.85;;;14.70;99.90;;;;;;5067119;28;20451;-63
2023/10/19 05:44:06;;;;;;;50.47;45.78;;;16.00;99.90;;;;;;5067694;28;20127;-63
2023/10/19 05:46:34;;;;;;;47.72;43.05;;;17.40;99.90;;;;;;5067420;28;20415;-63
2023/10/19 05:49:03;;;;;;;46.08;41.75;;;17.50;99.90;;;;;;5064894;28;20140;-63
2023/10/19 05:51:29;;;;;;;51.75;46.13;;;16.00;99.90;;;;;;5067366;28;20037;-63
2023/10/19 05:54:01;;;;;;;53.47;47.90;;;17.60;99.90;;;;;;5065583;28;20401;-63
2023/10/19 05:56:30;;;;;;;52.90;47.65;;;17.40;99.90;;;;;;5066899;28;20048;-62
2023/10/19 05:58:56;;;;;;;53.75;48.30;;;17.20;99.90;;;;;;5067585;28;20418;-63
2023/10/19 06:01:22;;;;;;;53.28;48.00;;;16.10;99.90;;;;;;5066461;28;20045;-63
2023/10/19 06:03:48;;;;;;;55.08;49.67;;;17.40;99.90;;;;;;5066907;28;20072;-62
2023/10/19 06:06:14;;;;;;;54.53;49.13;;;15.70;99.90;;;;;;5066985;28;20091;-62
2023/10/19 06:08:42;;;;;;;52.00;46.63;;;17.40;99.90;;;;;;5066852;28;20097;-63
2023/10/19 06:11:08;;;;;;;53.60;48.20;;;18.50;99.90;;;;;;5066358;28;20461;-63
2023/10/19 06:13:33;;;;;;;54.90;49.45;;;18.10;99.90;;;;;;5065517;28;20049;-62
2023/10/19 06:15:59;;;;;;;55.63;50.15;;;16.60;99.90;;;;;;5062982;28;20064;-64
2023/10/19 06:18:24;;;;;;;61.35;55.17;;;16.80;99.90;;;;;;5064752;28;20040;-62
2023/10/19 06:20:51;;;;;;;62.17;46.92;;;15.10;99.90;;;;;;5063398;28;20139;-62
2023/10/19 06:23:17;;;;;;;59.60;53.55;;;18.20;99.90;;;;;;5065207;28;20036;-61
2023/10/19 06:25:43;;;;;;;54.65;48.83;;;18.20;99.90;;;;;;5065173;28;20050;-62
2023/10/19 06:28:11;;;;;;;58.38;52.67;;;18.20;99.90;;;;;;5063850;28;20033;-62
2023/10/19 06:30:36;;;;;;;50.47;45.72;;;15.70;99.90;;;;;;5062999;28;20203;-61
2023/10/19 06:33:03;;;;;;;57.95;52.05;;;15.20;99.90;;;;;;5063817;28;20115;-61
2023/10/19 06:35:33;;;;;;;54.95;49.38;;;18.40;99.90;;;;;;5063193;28;20097;-62
2023/10/19 06:38:00;;;;;;;54.58;48.88;;;15.80;99.90;;;;;;5069343;28;20036;-65
2023/10/19 06:40:27;;;;;;;158.63;63.45;;;15.30;99.90;;;;;;5061578;28;20113;-65
2023/10/19 06:42:58;;;;;;;57.65;48.92;;;18.50;99.90;;;;;;5065395;28;20040;-65
2023/10/19 06:45:25;;;;;;;59.92;53.13;;;18.50;99.90;;;;;;5060842;28;20036;-65
2023/10/19 06:47:52;;;;;;;56.42;50.33;;;16.00;99.90;;;;;;5064348;28;20037;-66
2023/10/19 06:50:22;;;;;;;58.35;49.53;;;18.50;99.90;;;;;;5064237;28;20068;-65
2023/10/19 06:52:48;;;;;;;56.45;48.45;;;15.50;99.90;;;;;;5063488;28;20101;-66
2023/10/19 06:55:19;;;;;;;59.30;52.83;;;18.40;99.90;;;;;;5062898;28;20507;-65
2023/10/19 06:57:52;;;;;;;56.22;49.70;;;16.00;99.90;;;;;;5064565;28;20047;-65
2023/10/19 07:00:20;;;;;;;57.50;51.25;;;16.80;99.90;;;;;;5064343;28;20036;-65
2023/10/19 07:02:46;;;;;;;56.30;50.33;;;17.90;99.90;;;;;;5069958;28;20033;-65
2023/10/19 07:05:13;;;;;;;58.38;50.00;;;17.90;99.90;;;;;;5069197;28;20082;-65
2023/10/19 07:07:42;;;;;;;56.63;48.05;;;18.30;99.90;;;;;;5068520;28;20041;-65
2023/10/19 07:10:13;;;;;;;56.80;48.25;;;15.40;99.90;;;;;;5067880;28;20045;-65
2023/10/19 07:12:43;;;;;;;54.08;48.20;;;17.20;99.90;;;;;;5070294;28;20044;-65
2023/10/19 07:15:13;;;;;;;52.80;47.30;;;15.50;99.90;;;;;;5069264;28;20040;-65
2023/10/19 07:17:43;;;;;;;56.55;49.28;;;15.30;99.90;;;;;;5065655;28;20058;-65
2023/10/19 07:23:03;;;;;;;50.97;46.10;;;17.80;99.90;;;;;;5069785;28;20045;-65
2023/10/19 07:25:29;;;;;;;54.78;49.33;;;18.30;99.90;;;;;;5069108;28;20048;-65
2023/10/19 07:27:55;;;;;;;57.45;51.70;;;15.50;99.90;;;;;;5067800;28;20040;-65
2023/10/19 07:30:22;;;;;;;59.45;53.30;;;18.30;99.90;;;;;;5067041;28;20133;-65
2023/10/19 07:32:59;;;;;;;56.97;50.95;;;16.90;99.90;;;;;;5065758;28;20461;-65
2023/10/19 07:35:26;;;;;;;58.67;52.42;;;16.70;99.90;;;;;;5063231;28;20072;-65
2023/10/19 07:37:52;;;;;;;63.15;56.53;;;15.50;99.90;;;;;;5066143;28;20190;-65
2023/10/19 07:40:18;;;;;;;64.47;57.45;;;18.60;99.90;;;;;;5066349;28;20429;-65
2023/10/19 07:42:49;;;;;;;64.75;57.75;;;18.70;99.90;;;;;;5065765;28;20040;-65
2023/10/19 07:45:15;;;;;;;64.75;56.45;;;17.70;99.90;;;;;;5063391;28;20059;-65
2023/10/19 07:47:41;;;;;;;59.97;53.80;;;15.70;99.90;;;;;;5063715;28;20060;-62
2023/10/19 07:50:16;;;;;;;67.88;60.50;;;18.60;99.90;;;;;;5066114;28;20036;-62
2023/10/19 07:52:48;;;;;;;71.40;61.78;;;17.20;99.90;;;;;;5064217;28;20067;-62
2023/10/19 07:55:14;;;;;;;64.05;57.47;;;18.60;99.90;;;;;;5064291;28;20040;-63
2023/10/19 07:57:42;;;;;;;65.15;57.00;;;18.80;99.90;;;;;;5063230;28;20081;-62
2023/10/19 08:00:09;;;;;;;62.05;55.70;;;15.50;99.90;;;;;;5064749;28;20036;-64
2023/10/19 08:02:37;;;;;;;74.13;64.53;;;15.60;99.90;;;;;;5066619;28;20059;-62
2023/10/19 08:05:04;;;;;;;64.35;57.45;;;17.60;99.90;;;;;;5063459;28;20119;-65
2023/10/19 08:07:30;;;;;;;68.75;60.47;;;16.30;99.90;;;;;;5061564;28;20055;-62
2023/10/19 08:09:58;;;;;;;71.32;60.08;;;16.40;99.90;;;;;;5068373;28;20048;-62
2023/10/19 08:12:26;;;;;;;70.97;59.67;;;18.80;99.90;;;;;;5068152;28;20048;-62
2023/10/19 08:14:55;;;;;;;62.25;55.42;;;18.10;99.90;;;;;;5067590;28;20040;-62
2023/10/19 08:17:22;;;;;;;67.90;58.58;;;19.10;99.90;;;;;;5068360;28;20052;-62
2023/10/19 08:19:47;;;;;;;66.32;58.55;;;15.60;99.90;;;;;;5068298;28;20048;-62
2023/10/19 08:22:14;;;;;;;61.15;52.83;;;18.90;99.90;;;;;;5068089;28;20048;-61
2023/10/19 08:24:43;;;;;;;71.72;63.00;;;19.00;99.90;;;;;;5067524;28;20044;-62
2023/10/19 08:27:10;;;;;;;65.75;57.42;;;19.00;99.90;;;;;;5067358;28;20403;-63
2023/10/19 08:29:37;;;;;;;65.20;56.22;;;15.60;99.90;;;;;;5067418;28;20162;-62
2023/10/19 08:32:02;;;;;;;63.95;53.88;;;15.90;99.90;;;;;;5067968;28;20041;-62
2023/10/19 08:34:29;;;;;;;59.50;53.08;;;16.00;99.90;;;;;;5068221;28;20035;-62
2023/10/19 08:36:56;;;;;;;62.25;55.55;;;19.20;99.90;;;;;;5062578;28;20253;-63
2023/10/19 08:39:24;;;;;;;63.88;56.88;;;16.80;99.90;;;;;;5064905;28;20131;-62
2023/10/19 08:41:53;;;;;;;65.18;58.25;;;16.40;99.90;;;;;;5067211;28;20182;-63
2023/10/19 08:44:19;;;;;;;58.90;52.50;;;17.70;99.90;;;;;;5067419;28;20044;-64
2023/10/19 08:46:47;;;;;;;63.72;56.35;;;18.90;99.90;;;;;;5067521;28;20056;-63
2023/10/19 08:49:14;;;;;;;64.60;54.72;;;17.60;99.90;;;;;;5067484;28;20047;-62
2023/10/19 08:51:45;;;;;;;59.83;53.30;;;15.90;99.90;;;;;;5062097;28;20067;-63
2023/10/19 08:54:17;;;;;;;67.45;55.30;;;17.90;99.90;;;;;;5065109;28;20052;-62
2023/10/19 08:56:44;;;;;;;60.67;54.05;;;19.20;99.90;;;;;;5064053;28;20036;-62
2023/10/19 08:59:13;;;;;;;60.00;54.08;;;15.90;99.90;;;;;;5067249;28;20095;-63
2023/10/19 09:01:38;;;;;;;59.78;53.53;;;18.10;99.90;;;;;;5061266;28;20040;-63
2023/10/19 09:04:08;;;;;;;63.10;56.38;;;19.60;99.90;;;;;;5068453;28;20040;-63
2023/10/19 09:06:44;;;;;;;65.65;54.25;;;19.60;99.90;;;;;;5066035;28;20076;-64
2023/10/19 09:09:16;;;;;;;64.95;55.65;;;15.90;99.90;;;;;;5067824;28;20417;-61
2023/10/19 09:11:46;;;;;;;70.03;56.22;;;16.00;99.90;;;;;;5063892;28;21431;-63
2023/10/19 09:14:13;;;;;;;69.47;56.90;;;19.20;99.90;;;;;;5065344;28;20124;-62
2023/10/19 09:16:55;;;;;;;67.80;57.40;;;16.60;99.90;;;;;;5060108;28;20051;-64
2023/10/19 09:19:34;;;;;;;63.67;56.80;;;19.90;99.90;;;;;;5061336;28;20139;-65
2023/10/19 09:22:02;;;;;;;62.38;55.92;;;18.00;99.90;;;;;;5062925;28;20056;-63
2023/10/19 09:24:27;;;;;;;70.47;59.25;;;18.80;99.90;;;;;;5062278;28;20055;-63
2023/10/19 09:26:53;;;;;;;64.60;57.85;;;15.90;99.90;;;;;;5063466;28;20041;-62
2023/10/19 09:29:19;;;;;;;69.18;56.63;;;18.20;99.90;;;;;;5063572;28;20067;-62
2023/10/19 09:31:46;;;;;;;68.07;57.08;;;16.70;99.90;;;;;;5062993;28;20105;-63
2023/10/19 09:34:13;;;;;;;73.85;59.58;;;19.20;99.90;;;;;;5068140;28;20075;-62
2023/10/19 09:36:38;;;;;;;84.07;65.68;;;16.10;99.90;;;;;;5064933;28;20143;-63
2023/10/19 09:39:04;;;;;;;68.80;59.30;;;19.70;99.90;;;;;;5065295;28;20198;-64
2023/10/19 09:41:32;;;;;;;76.88;64.53;;;19.60;99.90;;;;;;5062944;28;20041;-63
2023/10/19 09:44:06;;;;;;;74.30;62.92;;;19.10;99.90;;;;;;5068866;28;20080;-62
2023/10/19 09:46:36;;;;;;;81.50;69.65;;;17.40;99.90;;;;;;5064620;28;20063;-63
2023/10/19 09:49:02;;;;;;;79.32;65.28;;;18.20;99.90;;;;;;5062540;28;20047;-63
2023/10/19 09:51:28;;;;;;;77.80;63.60;;;20.10;99.90;;;;;;5063335;28;20598;-62
2023/10/19 09:53:58;;;;;;;77.55;60.58;;;18.30;99.90;;;;;;5066633;28;20040;-62
2023/10/19 09:56:33;;;;;;;73.97;61.92;;;20.30;99.90;;;;;;5065625;28;20040;-62
2023/10/19 09:59:06;;;;;;;75.78;65.57;;;20.30;99.90;;;;;;5068222;28;20787;-63
2023/10/19 10:02:12;;;;;;;68.25;57.45;;;16.20;99.90;;;;;;5061460;28;20502;-62
2023/10/19 10:04:39;;;;;;;67.88;59.65;;;20.10;99.90;;;;;;4982799;28;20440;-62
2023/10/19 10:07:07;;;;;;;74.30;60.67;;;20.10;99.90;;;;;;4980192;28;20074;-62
2023/10/19 10:09:39;;;;;;;73.03;59.30;;;17.10;99.90;;;;;;5025104;28;20163;-63
2023/10/19 10:12:23;;;;;;;76.47;59.80;;;20.20;99.90;;;;;;5064860;28;20055;-63
2023/10/19 10:15:10;;;;;;;74.40;59.22;;;20.70;99.90;;;;;;5066923;28;20518;-66
2023/10/19 10:17:37;;;;;;;67.20;56.72;;;16.40;99.90;;;;;;5063622;28;20123;-63
2023/10/19 10:20:13;;;;;;;67.68;59.78;;;20.30;99.90;;;;;;5062841;28;20076;-64
2023/10/19 10:22:38;;;;;;;70.88;60.35;;;18.60;99.90;;;;;;5063951;28;20048;-62
2023/10/19 10:25:04;;;;;;;70.47;58.90;;;19.10;99.90;;;;;;5064989;28;20044;-62
2023/10/19 10:27:30;;;;;;;67.82;57.60;;;16.60;99.90;;;;;;5064570;28;20044;-63
2023/10/19 10:30:06;;;;;;;65.88;57.67;;;21.00;99.90;;;;;;5067810;28;20051;-62
2023/10/19 10:32:54;;;;;;;69.55;58.72;;;21.10;99.90;;;;;;5063690;28;20044;-63
2023/10/19 10:35:40;;;;;;;68.13;57.78;;;16.70;99.90;;;;;;5065684;28;20090;-63
2023/10/19 10:38:14;;;;;;;67.00;59.97;;;16.70;99.90;;;;;;5068503;28;20044;-64
2023/10/19 10:40:50;;;;;;;62.35;55.85;;;18.50;99.90;;;;;;5070076;28;20037;-63
2023/10/19 10:43:17;;;;;;;61.22;54.92;;;20.00;99.90;;;;;;5068994;28;20532;-62
2023/10/19 10:45:43;;;;;;;64.18;56.47;;;18.30;99.90;;;;;;5069271;28;20051;-62
2023/10/19 10:48:18;;;;;;;67.78;57.53;;;17.80;99.90;;;;;;5069955;28;20148;-61
2023/10/19 10:50:46;;;;;;;68.97;58.95;;;19.20;99.90;;;;;;5070093;28;20042;-62
2023/10/19 10:53:13;;;;;;;70.80;59.88;;;18.10;99.90;;;;;;5062855;28;20098;-63
2023/10/19 10:55:39;;;;;;;60.42;53.83;;;20.40;99.90;;;;;;5066198;28;20078;-64
2023/10/19 10:58:05;;;;;;;62.75;56.15;;;18.00;99.90;;;;;;5070146;28;20490;-62
2023/10/19 11:00:33;;;;;;;65.35;57.17;;;17.10;99.90;;;;;;5069498;28;20044;-62
2023/10/19 11:03:09;;;;;;;63.30;56.55;;;21.40;99.90;;;;;;5063347;28;20036;-63
2023/10/19 11:05:36;;;;;;;59.38;53.50;;;21.60;99.90;;;;;;5061111;28;20441;-62
2023/10/19 11:08:09;;;;;;;57.38;51.45;;;21.90;99.90;;;;;;5067497;28;20052;-64
2023/10/19 11:10:35;;;;;;;58.65;52.38;;;21.40;99.90;;;;;;5066931;28;20037;-64
2023/10/19 11:13:11;;;;;;;60.47;54.03;;;21.90;99.90;;;;;;5068464;28;20055;-64
2023/10/19 11:15:38;;;;;;;61.35;55.20;;;18.60;99.90;;;;;;5065260;28;20082;-64
2023/10/19 11:18:07;;;;;;;62.30;55.83;;;21.50;99.90;;;;;;5064378;28;20055;-64
2023/10/19 11:20:33;;;;;;;55.72;50.28;;;22.40;99.90;;;;;;5067838;28;20063;-64
2023/10/19 11:23:02;;;;;;;54.33;48.85;;;17.60;99.90;;;;;;5067696;28;20048;-63
2023/10/19 11:25:30;;;;;;;60.85;54.90;;;18.80;99.90;;;;;;5067243;28;20130;-64
2023/10/19 11:27:56;;;;;;;56.22;50.75;;;20.90;99.90;;;;;;5068920;28;20106;-64
2023/10/19 11:30:24;;;;;;;55.33;50.03;;;17.50;99.90;;;;;;5071151;28;20036;-64
2023/10/19 11:32:52;;;;;;;56.55;50.95;;;22.20;99.90;;;;;;5072020;28;20036;-64
2023/10/19 11:35:19;;;;;;;59.00;52.90;;;21.80;99.90;;;;;;5066028;28;20048;-64
2023/10/19 11:37:52;;;;;;;56.63;50.90;;;20.00;99.90;;;;;;5065692;28;20444;-63
2023/10/19 11:40:22;;;;;;;57.78;52.00;;;18.00;99.90;;;;;;5064952;28;20041;-63
2023/10/19 11:42:48;;;;;;;57.83;52.20;;;17.80;99.90;;;;;;5067914;28;20151;-64
2023/10/19 11:45:16;;;;;;;58.22;52.50;;;22.10;99.90;;;;;;5067581;28;20047;-64
2023/10/19 11:47:42;;;;;;;56.35;50.63;;;17.90;99.90;;;;;;5069775;28;20504;-64
2023/10/19 11:50:08;;;;;;;56.97;51.47;;;20.70;99.90;;;;;;5064601;28;20037;-63
2023/10/19 11:52:34;;;;;;;57.75;51.88;;;18.00;99.90;;;;;;5062069;28;20456;-63
2023/10/19 11:54:59;;;;;;;55.28;49.85;;;22.80;99.90;;;;;;5064928;28;20055;-64
2023/10/19 11:57:25;;;;;;;57.65;52.05;;;20.50;99.90;;;;;;5066674;28;20142;-63
2023/10/19 11:59:54;;;;;;;53.65;48.50;;;21.20;99.90;;;;;;5067344;28;20037;-63
2023/10/19 12:02:20;;;;;;;53.72;48.50;;;20.70;99.90;;;;;;5066979;28;20040;-63
2023/10/19 12:04:46;;;;;;;53.90;48.42;;;22.30;99.90;;;;;;5066686;28;20043;-64
2023/10/19 12:07:12;;;;;;;54.05;48.67;;;22.30;99.90;;;;;;5066345;28;20044;-63
2023/10/19 12:09:41;;;;;;;230.75;76.00;;;17.70;99.90;;;;;;5067443;28;20047;-63
2023/10/19 12:12:07;;;;;;;54.30;49.10;;;18.80;99.90;;;;;;5066539;28;20050;-63
2023/10/19 12:14:36;;;;;;;54.47;49.08;;;17.70;99.90;;;;;;5063728;28;20037;-63
2023/10/19 12:17:02;;;;;;;56.70;50.88;;;22.10;99.90;;;;;;5066222;28;20101;-63
2023/10/19 12:19:29;;;;;;;55.25;49.85;;;18.00;99.90;;;;;;5068219;28;20067;-63
2023/10/19 12:21:57;;;;;;;54.80;49.33;;;22.00;99.90;;;;;;5065647;28;20387;-63
2023/10/19 12:24:23;;;;;;;57.28;51.60;;;19.60;99.90;;;;;;5064047;28;20055;-63
2023/10/19 12:26:50;;;;;;;50.17;45.33;;;21.00;99.90;;;;;;5066213;28;20040;-63
2023/10/19 12:29:17;;;;;;;52.10;47.05;;;18.50;99.90;;;;;;5066682;28;20598;-66
2023/10/19 12:31:43;;;;;;;51.15;45.67;;;21.90;99.90;;;;;;5058532;28;20051;-66
2023/10/19 12:34:11;;;;;;;50.75;45.85;;;20.00;99.90;;;;;;5064361;28;20036;-66
2023/10/19 12:36:37;;;;;;;53.47;48.03;;;18.50;99.90;;;;;;5066220;28;20405;-66
2023/10/19 12:39:06;;;;;;;55.03;49.47;;;17.50;99.90;;;;;;5067046;28;20041;-66
2023/10/19 12:41:32;;;;;;;51.65;46.38;;;19.50;99.90;;;;;;5064793;28;20044;-66
2023/10/19 12:43:58;;;;;;;53.10;47.63;;;19.20;99.90;;;;;;5064246;28;20048;-66
2023/10/19 12:46:24;;;;;;;52.10;46.67;;;20.30;99.90;;;;;;5066541;28;20040;-66
2023/10/19 12:48:51;;;;;;;51.80;46.47;;;20.90;99.90;;;;;;5067879;28;20044;-66
2023/10/19 12:51:23;;;;;;;53.67;48.30;;;17.60;99.90;;;;;;5066163;28;20517;-65
2023/10/19 12:53:51;;;;;;;52.13;46.72;;;20.40;99.90;;;;;;5066776;28;20059;-66
2023/10/19 12:56:17;;;;;;;52.38;47.05;;;21.70;99.90;;;;;;5067496;28;20059;-65
2023/10/19 12:58:43;;;;;;;51.60;46.15;;;19.90;99.90;;;;;;5063677;28;20079;-65